createdAt,value
2023-04-23T00:01:44.721Z,96183.13
2023-04-23T00:04:12.245Z,96179.00
2023-04-23T00:06:39.965Z,96185.50
2023-04-23T00:09:07.294Z,96179.19
2023-04-23T00:11:33.944Z,96176.53
2023-04-23T00:14:00.596Z,96178.22
2023-04-23T00:16:27.392Z,96175.84
2023-04-23T00:18:53.958Z,96178.28
2023-04-23T00:21:20.860Z,96173.19
2023-04-23T00:23:47.326Z,96173.50
2023-04-23T00:26:13.738Z,96170.75
2023-04-23T00:28:40.146Z,96165.44
2023-04-23T00:31:07.589Z,96170.44
2023-04-23T00:33:34.041Z,96168.09
2023-04-23T00:36:00.728Z,96165.81
2023-04-23T00:38:27.124Z,96168.19
2023-04-23T00:40:53.625Z,96172.00
2023-04-23T00:43:20.642Z,96175.22
2023-04-23T00:45:47.802Z,96166.78
2023-04-23T00:48:14.715Z,96158.72
2023-04-23T00:50:41.991Z,96163.94
2023-04-23T00:53:08.756Z,96156.94
2023-04-23T00:55:35.720Z,96152.91
2023-04-23T00:58:02.431Z,96158.53
2023-04-23T01:00:29.571Z,96158.41
2023-04-23T01:02:58.236Z,96161.63
2023-04-23T01:05:25.822Z,96157.50
2023-04-23T01:07:52.350Z,96159.97
2023-04-23T01:10:18.981Z,96151.00
2023-04-23T01:12:48.828Z,96150.13
2023-04-23T01:15:15.274Z,96152.22
2023-04-23T01:17:43.170Z,96154.66
2023-04-23T01:20:10.078Z,96155.94
2023-04-23T01:22:37.749Z,96146.72
2023-04-23T01:25:04.790Z,96155.94
2023-04-23T01:27:32.429Z,96144.75
2023-04-23T01:29:58.907Z,96152.78
2023-04-23T01:32:26.035Z,96156.72
2023-04-23T01:34:54.311Z,96157.72
2023-04-23T01:37:21.486Z,96156.34
2023-04-23T01:39:47.851Z,96145.34
2023-04-23T01:42:14.400Z,96152.22
2023-04-23T01:44:41.052Z,96151.44
2023-04-23T01:47:07.625Z,96152.13
2023-04-23T01:49:34.212Z,96145.72
2023-04-23T01:52:00.643Z,96149.63
2023-04-23T01:54:27.008Z,96158.19
2023-04-23T01:56:54.840Z,96150.72
2023-04-23T01:59:24.338Z,96152.13
2023-04-23T02:01:50.921Z,96151.03
2023-04-23T02:04:18.232Z,96148.47
2023-04-23T02:06:47.125Z,96150.06
2023-04-23T02:09:13.557Z,96148.47
2023-04-23T02:11:40.083Z,96151.19
2023-04-23T02:14:07.718Z,96151.13
2023-04-23T02:16:34.679Z,96148.84
2023-04-23T02:19:01.853Z,96150.00
2023-04-23T02:21:28.333Z,96148.84
2023-04-23T02:23:54.707Z,96148.06
2023-04-23T02:26:22.757Z,96145.81
2023-04-23T02:28:49.142Z,96151.44
2023-04-23T02:31:16.601Z,96158.59
2023-04-23T02:33:43.352Z,96148.06
2023-04-23T02:36:11.606Z,96138.34
2023-04-23T02:38:38.094Z,96149.28
2023-04-23T02:41:04.589Z,96148.63
2023-04-23T02:43:31.001Z,96145.00
2023-04-23T02:45:57.361Z,96160.41
2023-04-23T02:48:26.015Z,96151.19
2023-04-23T02:50:52.393Z,96150.72
2023-04-23T02:53:18.760Z,96150.72
2023-04-23T02:55:45.504Z,96143.91
2023-04-23T02:58:12.232Z,96146.22
2023-04-23T03:00:38.828Z,96146.13
2023-04-23T03:03:05.445Z,96145.13
2023-04-23T03:05:31.943Z,96138.84
2023-04-23T03:07:58.346Z,96131.34
2023-04-23T03:10:24.873Z,96126.28
2023-04-23T03:12:51.242Z,96139.53
2023-04-23T03:15:17.981Z,96130.78
2023-04-23T03:17:44.435Z,96129.88
2023-04-23T03:20:11.595Z,96132.81
2023-04-23T03:22:38.014Z,96129.59
2023-04-23T03:25:04.858Z,96137.25
2023-04-23T03:27:31.500Z,96125.34
2023-04-23T03:29:58.122Z,96125.44
2023-04-23T03:32:24.599Z,96127.03
2023-04-23T03:34:51.115Z,96124.56
2023-04-23T03:37:17.524Z,96119.47
2023-04-23T03:39:43.944Z,96112.50
2023-04-23T03:42:10.607Z,96109.53
2023-04-23T03:44:36.993Z,96116.00
2023-04-23T03:47:03.726Z,96121.16
2023-04-23T03:49:30.285Z,96121.69
2023-04-23T03:51:56.661Z,96126.19
2023-04-23T03:54:24.581Z,96133.28
2023-04-23T03:56:51.008Z,96127.94
2023-04-23T03:59:17.525Z,96132.66
2023-04-23T04:01:43.954Z,96133.66
2023-04-23T04:04:10.510Z,96131.69
2023-04-23T04:06:37.192Z,96130.41
2023-04-23T04:09:03.688Z,96126.69
2023-04-23T04:11:30.047Z,96124.03
2023-04-23T04:13:56.408Z,96126.59
2023-04-23T04:16:22.848Z,96120.81
2023-04-23T04:18:49.278Z,96123.03
2023-04-23T04:21:17.213Z,96123.44
2023-04-23T04:23:44.816Z,96129.09
2023-04-23T04:26:11.515Z,96127.72
2023-04-23T04:28:37.893Z,96130.88
2023-04-23T04:31:05.480Z,96125.84
2023-04-23T04:33:32.977Z,96130.59
2023-04-23T04:36:00.527Z,96129.78
2023-04-23T04:38:27.072Z,96138.03
2023-04-23T04:41:00.244Z,96130.28
2023-04-23T04:43:26.576Z,96125.69
2023-04-23T04:45:53.762Z,96119.03
2023-04-23T04:48:20.664Z,96112.56
2023-04-23T04:50:47.255Z,96112.50
2023-04-23T04:53:13.688Z,96117.88
2023-04-23T04:55:40.252Z,96109.50
2023-04-23T04:58:07.239Z,96114.59
2023-04-23T05:00:34.323Z,96112.25
2023-04-23T05:03:01.169Z,96122.47
2023-04-23T05:05:27.929Z,96120.03
2023-04-23T05:07:54.638Z,96118.44
2023-04-23T05:10:21.634Z,96117.88
2023-04-23T05:12:48.099Z,96114.13
2023-04-23T05:15:14.697Z,96116.97
2023-04-23T05:17:41.496Z,96114.41
2023-04-23T05:20:11.833Z,96125.00
2023-04-23T05:22:39.026Z,96119.09
2023-04-23T05:25:06.349Z,96122.19
2023-04-23T05:27:32.851Z,96125.03
2023-04-23T05:30:00.791Z,96128.25
2023-04-23T05:32:27.265Z,96129.84
2023-04-23T05:34:53.676Z,96127.13
2023-04-23T05:37:20.028Z,96119.16
2023-04-23T05:39:46.418Z,96125.44
2023-04-23T05:42:13.152Z,96134.31
2023-04-23T05:44:41.902Z,96127.41
2023-04-23T05:47:11.296Z,96130.00
2023-04-23T05:49:37.682Z,96120.56
2023-04-23T05:52:04.326Z,96132.78
2023-04-23T05:54:30.888Z,96138.28
2023-04-23T05:56:57.352Z,96139.34
2023-04-23T05:59:23.711Z,96132.47
2023-04-23T06:01:50.761Z,96129.44
2023-04-23T06:04:17.473Z,96131.78
2023-04-23T06:06:44.088Z,96132.88
2023-04-23T06:09:10.479Z,96128.94
2023-04-23T06:11:36.918Z,96131.78
2023-04-23T06:14:03.689Z,96138.88
2023-04-23T06:16:30.367Z,96138.28
2023-04-23T06:18:57.009Z,96135.34
2023-04-23T06:21:23.978Z,96130.13
2023-04-23T06:23:50.686Z,96130.03
2023-04-23T06:26:17.460Z,96138.22
2023-04-23T06:28:45.631Z,96128.38
2023-04-23T06:31:13.249Z,96128.56
2023-04-23T06:33:39.699Z,96139.69
2023-04-23T06:36:10.898Z,96134.38
2023-04-23T06:38:37.923Z,96126.31
2023-04-23T06:41:04.983Z,96123.38
2023-04-23T06:43:31.492Z,96123.56
2023-04-23T06:45:57.979Z,96128.75
2023-04-23T06:48:25.909Z,96126.41
2023-04-23T06:50:52.328Z,96120.81
2023-04-23T06:53:18.785Z,96127.09
2023-04-23T06:55:45.599Z,96126.00
2023-04-23T06:58:13.606Z,96119.81
2023-04-23T07:00:40.582Z,96122.56
2023-04-23T07:03:07.574Z,96121.94
2023-04-23T07:05:34.015Z,96123.53
2023-04-23T07:08:00.452Z,96126.66
2023-04-23T07:10:26.898Z,96123.66
2023-04-23T07:12:53.282Z,96126.09
2023-04-23T07:15:19.728Z,96121.25
2023-04-23T07:17:46.398Z,96117.56
2023-04-23T07:20:12.826Z,96117.22
2023-04-23T07:22:39.229Z,96111.34
2023-04-23T07:25:06.155Z,96116.56
2023-04-23T07:27:32.605Z,96102.66
2023-04-23T07:29:59.005Z,96101.78
2023-04-23T07:32:27.964Z,96103.22
2023-04-23T07:34:56.139Z,96102.63
2023-04-23T07:37:22.799Z,96101.41
2023-04-23T07:39:49.618Z,96097.56
2023-04-23T07:42:16.056Z,96104.44
2023-04-23T07:44:42.391Z,96099.00
2023-04-23T07:47:08.854Z,96099.66
2023-04-23T07:49:35.472Z,96097.81
2023-04-23T07:52:01.841Z,96102.53
2023-04-23T07:54:28.254Z,96109.53
2023-04-23T07:56:54.654Z,96110.00
2023-04-23T07:59:21.030Z,96107.84
2023-04-23T08:01:47.398Z,96104.88
2023-04-23T08:04:14.123Z,96111.16
2023-04-23T08:06:41.723Z,96104.47
2023-04-23T08:09:09.250Z,96109.00
2023-04-23T08:11:35.823Z,96103.06
2023-04-23T08:14:02.239Z,96100.16
2023-04-23T08:16:29.790Z,96097.06
2023-04-23T08:21:31.776Z,96102.56
2023-04-23T08:23:58.476Z,96107.09
2023-04-23T08:26:25.065Z,96114.88
2023-04-23T08:28:52.171Z,96118.94
2023-04-23T08:31:25.498Z,96113.44
2023-04-23T08:33:53.475Z,96113.25
2023-04-23T08:36:20.038Z,96120.78
2023-04-23T08:38:46.441Z,96117.63
2023-04-23T08:41:15.034Z,96120.28
2023-04-23T08:43:46.677Z,96123.56
2023-04-23T08:46:15.983Z,96121.97
2023-04-23T08:48:45.108Z,96121.19
2023-04-23T08:51:16.623Z,96117.75
2023-04-23T08:53:45.107Z,96132.59
2023-04-23T08:56:13.574Z,96132.59
2023-04-23T08:58:41.760Z,96132.00
2023-04-23T09:01:09.125Z,96129.81
2023-04-23T09:03:36.382Z,96127.16
2023-04-23T09:06:02.936Z,96125.47
2023-04-23T09:08:30.706Z,96123.00
2023-04-23T09:11:01.024Z,96131.16
2023-04-23T09:13:30.696Z,96127.69
2023-04-23T09:15:57.174Z,96123.97
2023-04-23T09:18:23.741Z,96123.34
2023-04-23T09:20:50.728Z,96124.63
2023-04-23T09:23:21.205Z,96130.72
2023-04-23T09:25:47.617Z,96128.56
2023-04-23T09:28:15.077Z,96117.78
2023-04-23T09:30:45.916Z,96121.84
2023-04-23T09:33:12.734Z,96110.59
2023-04-23T09:35:40.834Z,96112.63
2023-04-23T09:38:08.242Z,96113.91
2023-04-23T09:40:34.909Z,96115.94
2023-04-23T09:43:04.584Z,96116.75
2023-04-23T09:45:35.574Z,96099.19
2023-04-23T09:48:04.862Z,96106.44
2023-04-23T09:50:36.951Z,96104.75
2023-04-23T09:53:04.594Z,96104.75
2023-04-23T09:55:35.750Z,96093.06
2023-04-23T09:58:03.937Z,96101.09
2023-04-23T10:00:38.037Z,96093.94
2023-04-23T10:03:10.004Z,96095.84
2023-04-23T10:08:13.631Z,96094.72
2023-04-23T10:10:56.812Z,96086.41
2023-04-23T10:13:28.443Z,96096.47
2023-04-23T10:15:57.824Z,96083.94
2023-04-23T10:18:28.099Z,96082.06
2023-04-23T10:20:54.653Z,96082.06
2023-04-23T10:23:23.674Z,96083.00
2023-04-23T10:25:53.192Z,96084.72
2023-04-23T10:28:26.394Z,96086.47
2023-04-23T10:30:54.313Z,96083.84
2023-04-23T10:33:29.364Z,96084.94
2023-04-23T10:35:57.528Z,96074.78
2023-04-23T10:38:25.059Z,96083.75
2023-04-23T10:40:55.254Z,96071.81
2023-04-23T10:43:22.283Z,96073.53
2023-04-23T10:45:50.028Z,96069.28
2023-04-23T10:48:16.995Z,96063.50
2023-04-23T10:51:00.188Z,96059.59
2023-04-23T10:53:31.627Z,96049.22
2023-04-23T10:56:08.105Z,96045.47
2023-04-23T10:58:51.713Z,96048.44
2023-04-23T11:01:19.181Z,96040.69
2023-04-23T11:03:47.644Z,96042.78
2023-04-23T11:06:20.311Z,96025.38
2023-04-23T11:08:54.785Z,96030.09
2023-04-23T11:11:39.723Z,96029.94
2023-04-23T11:14:14.222Z,96024.13
2023-04-23T11:16:41.102Z,96021.59
2023-04-23T11:19:12.714Z,96020.16
2023-04-23T11:21:59.424Z,96023.94
2023-04-23T11:24:31.356Z,96015.31
2023-04-23T11:26:58.107Z,96017.75
2023-04-23T11:29:26.498Z,96013.63
2023-04-23T11:32:02.442Z,96016.38
2023-04-23T11:34:30.782Z,96012.06
2023-04-23T11:36:59.535Z,96004.31
2023-04-23T11:39:26.893Z,95998.34
2023-04-23T11:41:53.974Z,96006.00
2023-04-23T11:44:21.446Z,95996.50
2023-04-23T11:46:49.526Z,95996.75
2023-04-23T11:49:17.408Z,95996.16
2023-04-23T11:51:44.824Z,95984.94
2023-04-23T11:54:13.445Z,95987.19
2023-04-23T11:56:41.222Z,95985.59
2023-04-23T11:59:08.312Z,95981.50
2023-04-23T12:01:44.507Z,95980.41
2023-04-23T12:04:16.215Z,95981.38
2023-04-23T12:06:45.644Z,95974.72
2023-04-23T12:09:13.445Z,95972.97
2023-04-23T12:11:44.056Z,95964.00
2023-04-23T12:14:12.401Z,95959.66
2023-04-23T12:16:41.090Z,95956.19
2023-04-23T12:19:09.182Z,95952.75
2023-04-23T12:21:46.848Z,95952.44
2023-04-23T12:24:13.281Z,95939.19
2023-04-23T12:26:39.809Z,95947.78
2023-04-23T12:29:07.792Z,95941.34
2023-04-23T12:31:36.927Z,95939.56
2023-04-23T12:34:05.270Z,95931.66
2023-04-23T12:36:32.701Z,95931.31
2023-04-23T12:39:22.258Z,95938.31
2023-04-23T12:41:53.419Z,95929.63
2023-04-23T12:44:21.241Z,95921.91
2023-04-23T12:47:05.065Z,95923.16
2023-04-23T12:49:32.721Z,95922.47
2023-04-23T12:52:01.462Z,95924.19
2023-04-23T12:54:31.103Z,95916.63
2023-04-23T12:56:58.257Z,95919.94
2023-04-23T12:59:24.825Z,95926.28
2023-04-23T13:01:51.623Z,95927.84
2023-04-23T13:04:18.124Z,95921.59
2023-04-23T13:06:44.514Z,95924.22
2023-04-23T13:09:11.303Z,95922.53
2023-04-23T13:11:38.759Z,95912.59
2023-04-23T13:14:05.799Z,95914.69
2023-04-23T13:16:32.364Z,95912.88
2023-04-23T13:19:00.260Z,95907.88
2023-04-23T13:21:27.239Z,95913.41
2023-04-23T13:23:53.750Z,95912.41
2023-04-23T13:26:20.130Z,95906.25
2023-04-23T13:28:46.556Z,95907.25
2023-04-23T13:31:13.679Z,95901.41
2023-04-23T13:33:40.911Z,95899.16
2023-04-23T13:36:08.509Z,95895.00
2023-04-23T13:38:35.579Z,95897.84
2023-04-23T13:41:01.944Z,95894.06
2023-04-23T13:43:28.329Z,95894.72
2023-04-23T13:45:54.954Z,95889.22
2023-04-23T13:48:21.663Z,95889.38
2023-04-23T13:50:48.085Z,95878.38
2023-04-23T13:53:14.523Z,95878.66
2023-04-23T13:55:41.051Z,95873.00
2023-04-23T13:58:07.608Z,95872.03
2023-04-23T14:00:34.234Z,95872.03
2023-04-23T14:03:00.842Z,95873.59
2023-04-23T14:05:27.465Z,95873.28
2023-04-23T14:07:53.816Z,95878.16
2023-04-23T14:10:20.354Z,95872.03
2023-04-23T14:12:46.836Z,95868.25
2023-04-23T14:15:13.458Z,95866.81
2023-04-23T14:17:42.779Z,95873.41
2023-04-23T14:20:11.608Z,95868.72
2023-04-23T14:22:38.399Z,95861.00
2023-04-23T14:25:10.150Z,95861.00
2023-04-23T14:27:44.515Z,95865.44
2023-04-23T14:30:20.394Z,95865.94
2023-04-23T14:32:49.453Z,95858.25
2023-04-23T14:35:16.775Z,95862.69
2023-04-23T14:37:45.280Z,95859.09
2023-04-23T14:40:15.742Z,95858.19
2023-04-23T14:42:42.205Z,95853.28
2023-04-23T14:45:09.395Z,95850.00
2023-04-23T14:47:36.280Z,95852.69
2023-04-23T14:50:03.550Z,95853.81
2023-04-23T14:52:31.677Z,95845.69
2023-04-23T14:54:58.575Z,95847.56
2023-04-23T14:57:25.492Z,95851.66
2023-04-23T14:59:52.444Z,95846.97
2023-04-23T15:02:18.903Z,95846.50
2023-04-23T15:04:48.619Z,95844.31
2023-04-23T15:07:17.718Z,95841.97
2023-04-23T15:09:44.900Z,95834.41
2023-04-23T15:12:40.782Z,95838.84
2023-04-23T15:15:27.728Z,95829.59
2023-04-23T15:18:00.695Z,95830.88
2023-04-23T15:20:27.195Z,95840.75
2023-04-23T15:22:53.690Z,95832.28
2023-04-23T15:25:20.208Z,95829.50
2023-04-23T15:27:46.665Z,95821.22
2023-04-23T15:30:13.342Z,95824.97
2023-04-23T15:32:39.798Z,95824.38
2023-04-23T15:35:06.443Z,95820.91
2023-04-23T15:37:32.897Z,95810.88
2023-04-23T15:39:59.299Z,95820.94
2023-04-23T15:42:25.771Z,95818.13
2023-04-23T15:44:55.871Z,95815.94
2023-04-23T15:47:23.290Z,95815.00
2023-04-23T15:49:50.354Z,95820.34
2023-04-23T15:52:17.962Z,95808.13
2023-04-23T15:54:45.539Z,95805.13
2023-04-23T15:57:12.089Z,95800.91
2023-04-23T15:59:38.481Z,95798.25
2023-04-23T16:02:05.313Z,95799.94
2023-04-23T16:04:32.084Z,95793.97
2023-04-23T16:06:58.706Z,95794.56
2023-04-23T16:09:25.782Z,95790.94
2023-04-23T16:11:54.500Z,95790.94
2023-04-23T16:14:20.927Z,95775.13
2023-04-23T16:16:47.522Z,95770.88
2023-04-23T16:19:14.011Z,95768.88
2023-04-23T16:21:40.764Z,95760.88
2023-04-23T16:24:07.764Z,95761.34
2023-04-23T16:26:34.684Z,95754.13
2023-04-23T16:31:31.148Z,95747.09
2023-04-23T16:33:57.628Z,95742.88
2023-04-23T16:36:24.194Z,95741.94
2023-04-23T16:38:50.803Z,95759.22
2023-04-23T16:41:19.102Z,95758.75
2023-04-23T16:43:47.589Z,95765.97
2023-04-23T16:46:17.094Z,95773.84
2023-04-23T16:48:45.194Z,95775.91
2023-04-23T16:51:11.906Z,95770.94
2023-04-23T16:53:38.375Z,95760.66
2023-04-23T16:56:05.553Z,95751.72
2023-04-23T16:58:31.982Z,95734.69
2023-04-23T17:00:58.426Z,95737.06
2023-04-23T17:03:25.082Z,95753.69
2023-04-23T17:06:07.922Z,95758.22
2023-04-23T17:08:36.708Z,95760.75
2023-04-23T17:11:07.520Z,95762.47
2023-04-23T17:13:34.705Z,95758.25
2023-04-23T17:16:02.201Z,95748.84
2023-04-23T17:18:29.039Z,95747.09
2023-04-23T17:20:55.632Z,95735.03
2023-04-23T17:23:22.034Z,95736.31
2023-04-23T17:25:49.219Z,95736.47
2023-04-23T17:28:18.213Z,95736.78
2023-04-23T17:30:45.563Z,95734.75
2023-04-23T17:33:12.161Z,95729.13
2023-04-23T17:35:38.727Z,95737.09
2023-04-23T17:38:05.117Z,95733.81
2023-04-23T17:40:31.729Z,95737.59
2023-04-23T17:42:58.135Z,95726.44
2023-04-23T17:45:24.545Z,95730.06
2023-04-23T17:47:50.949Z,95730.34
2023-04-23T17:50:17.475Z,95732.09
2023-04-23T17:52:44.963Z,95736.00
2023-04-23T17:55:11.958Z,95737.41
2023-04-23T17:57:38.380Z,95733.34
2023-04-23T18:00:09.790Z,95741.63
2023-04-23T18:02:40.240Z,95750.22
2023-04-23T18:05:11.849Z,95744.91
2023-04-23T18:07:39.066Z,95750.06
2023-04-23T18:10:06.406Z,95756.81
2023-04-23T18:12:33.349Z,95758.22
2023-04-23T18:15:00.821Z,95753.19
2023-04-23T18:17:27.782Z,95741.47
2023-04-23T18:19:54.800Z,95754.91
2023-04-23T18:22:24.418Z,95753.03
2023-04-23T18:24:51.103Z,95757.09
2023-04-23T18:27:17.743Z,95746.78
2023-04-23T18:29:44.785Z,95749.13
2023-04-23T18:32:15.887Z,95753.47
2023-04-23T18:34:47.626Z,95771.47
2023-04-23T18:37:31.978Z,95770.38
2023-04-23T18:39:58.558Z,95776.19
2023-04-23T18:42:24.983Z,95768.34
2023-04-23T18:44:51.338Z,95765.53
2023-04-23T18:47:19.036Z,95764.44
2023-04-23T18:49:52.341Z,95760.22
2023-04-23T18:52:18.707Z,95770.50
2023-04-23T18:54:45.116Z,95759.06
2023-04-23T18:57:11.512Z,95770.00
2023-04-23T18:59:37.903Z,95776.44
2023-04-23T19:02:05.250Z,95782.53
2023-04-23T19:04:33.009Z,95784.53
2023-04-23T19:06:59.878Z,95783.91
2023-04-23T19:09:26.690Z,95782.78
2023-04-23T19:11:54.296Z,95784.66
2023-04-23T19:14:20.739Z,95787.19
2023-04-23T19:16:47.200Z,95793.75
2023-04-23T19:19:13.622Z,95787.81
2023-04-23T19:21:40.088Z,95788.41
2023-04-23T19:24:06.578Z,95789.19
2023-04-23T19:26:33.229Z,95788.56
2023-04-23T19:28:59.646Z,95791.22
2023-04-23T19:31:26.498Z,95784.03
2023-04-23T19:33:52.994Z,95788.56
2023-04-23T19:36:19.362Z,95778.09
2023-04-23T19:38:46.428Z,95773.91
2023-04-23T19:41:13.022Z,95771.25
2023-04-23T19:43:40.302Z,95768.72
2023-04-23T19:46:07.012Z,95771.81
2023-04-23T19:48:33.436Z,95781.19
2023-04-23T19:50:59.976Z,95772.63
2023-04-23T19:53:27.367Z,95777.44
2023-04-23T19:55:53.767Z,95768.38
2023-04-23T19:58:20.229Z,95772.88
2023-04-23T20:00:46.726Z,95768.31
2023-04-23T20:03:13.457Z,95778.63
2023-04-23T20:05:42.101Z,95777.06
2023-04-23T20:08:15.038Z,95773.41
2023-04-23T20:10:42.245Z,95769.50
2023-04-23T20:13:08.808Z,95763.56
2023-04-23T20:15:35.229Z,95760.78
2023-04-23T20:18:02.083Z,95761.75
2023-04-23T20:20:28.502Z,95769.09
2023-04-23T20:22:55.080Z,95770.94
2023-04-23T20:25:25.606Z,95771.91
2023-04-23T20:27:52.787Z,95767.06
2023-04-23T20:30:19.387Z,95765.94
2023-04-23T20:32:45.855Z,95767.50
2023-04-23T20:35:12.367Z,95763.75
2023-04-23T20:37:38.904Z,95755.00
2023-04-23T20:40:06.077Z,95760.16
2023-04-23T20:42:33.434Z,95762.81
2023-04-23T20:45:00.504Z,95762.50
2023-04-23T20:47:27.841Z,95767.81
2023-04-23T20:49:54.437Z,95765.28
2023-04-23T20:52:20.907Z,95757.13
2023-04-23T20:54:47.261Z,95763.84
2023-04-23T20:57:13.687Z,95759.00
2023-04-23T20:59:40.203Z,95753.22
2023-04-23T21:02:07.495Z,95750.88
2023-04-23T21:04:34.316Z,95759.34
2023-04-23T21:07:01.276Z,95762.63
2023-04-23T21:09:27.960Z,95755.22
2023-04-23T21:11:55.194Z,95751.19
2023-04-23T21:14:21.762Z,95750.13
2023-04-23T21:16:48.167Z,95750.25
2023-04-23T21:19:14.752Z,95749.16
2023-04-23T21:21:41.211Z,95756.00
2023-04-23T21:24:07.623Z,95747.63
2023-04-23T21:26:34.124Z,95746.31
2023-04-23T21:29:00.531Z,95745.53
2023-04-23T21:31:52.806Z,95747.22
2023-04-23T21:34:22.446Z,95749.81
2023-04-23T21:36:49.333Z,95748.72
2023-04-23T21:39:16.282Z,95745.69
2023-04-23T21:41:44.222Z,95740.19
2023-04-23T21:44:10.626Z,95743.06
2023-04-23T21:46:37.107Z,95740.31
2023-04-23T21:49:03.543Z,95747.75
2023-04-23T21:51:30.172Z,95747.34
2023-04-23T21:53:56.812Z,95740.03
2023-04-23T21:56:23.431Z,95739.88
2023-04-23T21:58:49.846Z,95745.53
2023-04-23T22:01:18.194Z,95736.44
2023-04-23T22:03:46.720Z,95751.09
2023-04-23T22:06:15.472Z,95745.94
2023-04-23T22:08:44.476Z,95749.78
2023-04-23T22:11:11.359Z,95745.81
2023-04-23T22:13:38.201Z,95746.88
2023-04-23T22:16:10.662Z,95750.78
2023-04-23T22:18:43.213Z,95737.84
2023-04-23T22:21:09.698Z,95740.78
2023-04-23T22:23:36.084Z,95732.34
2023-04-23T22:26:02.531Z,95739.22
2023-04-23T22:28:28.934Z,95746.19
2023-04-23T22:30:55.335Z,95741.50
2023-04-23T22:33:21.860Z,95746.69
2023-04-23T22:35:48.268Z,95738.16
2023-04-23T22:38:15.740Z,95738.47
2023-04-23T22:40:42.152Z,95744.16
2023-04-23T22:43:08.522Z,95735.81
2023-04-23T22:45:34.933Z,95739.75
2023-04-23T22:48:01.418Z,95741.13
2023-04-23T22:50:28.889Z,95725.94
2023-04-23T22:52:56.062Z,95730.03
2023-04-23T22:55:22.677Z,95733.09
2023-04-23T22:57:49.101Z,95731.44
2023-04-23T23:00:15.926Z,95733.97
2023-04-23T23:02:42.423Z,95729.19
2023-04-23T23:05:09.551Z,95722.34
2023-04-23T23:07:35.979Z,95722.66
2023-04-23T23:10:03.787Z,95719.78
2023-04-23T23:12:30.299Z,95724.34
2023-04-23T23:14:56.716Z,95714.19
2023-04-23T23:17:23.150Z,95719.47
2023-04-23T23:19:49.541Z,95724.16
2023-04-23T23:22:15.961Z,95714.56
2023-04-23T23:24:42.349Z,95714.97
2023-04-23T23:27:08.772Z,95704.97
2023-04-23T23:29:35.193Z,95699.50
2023-04-23T23:32:02.561Z,95696.28
2023-04-23T23:34:28.970Z,95690.06
2023-04-23T23:36:56.300Z,95684.13
2023-04-23T23:39:22.915Z,95685.69
2023-04-23T23:41:49.269Z,95690.00
2023-04-23T23:44:16.558Z,95684.13
2023-04-23T23:46:43.105Z,95686.00
2023-04-23T23:49:09.568Z,95685.84
2023-04-23T23:51:36.115Z,95680.63
2023-04-23T23:54:02.483Z,95677.28
2023-04-23T23:56:28.901Z,95671.00
2023-04-23T23:58:55.575Z,95654.19
